createdAt,value
2018-11-22T00:00:51.705Z,100351.88
2018-11-22T00:03:16.456Z,100347.71
2018-11-22T00:05:42.555Z,100348.01
2018-11-22T00:08:08.518Z,100345.97
2018-11-22T00:10:35.798Z,100340.79
2018-11-22T00:13:00.407Z,100347.50
2018-11-22T00:15:26.421Z,100350.45
2018-11-22T00:17:52.373Z,100345.29
2018-11-22T12:17:31.633Z,100428.92
2018-11-22T12:19:57.672Z,100422.41
2018-11-22T12:22:23.656Z,100422.92
2018-11-22T12:24:49.653Z,100419.83
2018-11-22T12:27:15.616Z,100417.80
2018-11-22T12:29:41.652Z,100422.56
2018-11-22T12:32:07.687Z,100422.70
2018-11-22T12:34:33.717Z,100425.55
2018-11-22T12:36:59.708Z,100414.31
2018-11-22T12:39:25.686Z,100423.42
2018-11-22T12:41:51.683Z,100416.29
2018-11-22T12:44:17.700Z,100417.22
2018-11-22T12:46:43.723Z,100413.40
2018-11-22T12:49:09.738Z,100407.63
2018-11-22T12:51:35.740Z,100408.88
2018-11-22T12:54:01.745Z,100409.41
2018-11-22T12:56:27.755Z,100412.25
2018-11-22T12:58:53.817Z,100403.03
2018-11-22T13:01:19.803Z,100410.03
2018-11-22T13:03:45.782Z,100403.37
2018-11-22T13:06:11.767Z,100405.17
2018-11-22T13:08:37.775Z,100401.83
2018-11-22T13:11:04.771Z,100404.43
2018-11-22T13:13:30.806Z,100409.14
2018-11-22T13:15:56.807Z,100399.95
2018-11-22T13:18:22.824Z,100397.34
2018-11-22T13:20:48.819Z,100397.23
2018-11-22T13:23:14.818Z,100394.95
2018-11-22T13:25:40.818Z,100399.78
2018-11-22T13:28:07.660Z,100395.27
2018-11-22T13:30:34.355Z,100398.33
2018-11-22T13:33:00.355Z,100399.05
2018-11-22T13:35:26.347Z,100401.33
2018-11-22T13:37:52.292Z,100405.52
2018-11-22T13:40:18.276Z,100409.83
2018-11-22T13:42:44.263Z,100404.38
2018-11-22T13:45:10.273Z,100407.41
2018-11-22T13:47:36.348Z,100404.44
2018-11-22T13:50:02.367Z,100406.61
2018-11-22T13:52:28.348Z,100412.92
2018-11-22T13:54:54.338Z,100414.03
2018-11-22T13:57:20.312Z,100411.64
2018-11-22T13:59:46.308Z,100417.41
2018-11-22T14:02:12.305Z,100415.27
2018-11-22T14:04:38.263Z,100410.37
2018-11-22T14:07:04.242Z,100419.12
2018-11-22T14:09:30.216Z,100416.84
2018-11-22T14:11:56.249Z,100415.70
2018-11-22T14:14:22.295Z,100415.43
2018-11-22T14:16:48.306Z,100418.98
2018-11-22T14:19:14.296Z,100417.59
2018-11-22T14:21:40.289Z,100416.58
2018-11-22T14:24:06.235Z,100418.13
2018-11-22T14:26:32.212Z,100423.53
2018-11-22T14:28:58.175Z,100421.39
2018-11-22T14:31:24.234Z,100424.83
2018-11-22T14:33:50.236Z,100429.07
2018-11-22T14:36:16.233Z,100422.77
2018-11-22T14:38:42.254Z,100423.53
2018-11-22T14:41:08.247Z,100430.11
2018-11-22T14:43:34.225Z,100426.48
2018-11-22T14:46:00.258Z,100432.70
2018-11-22T14:48:26.220Z,100431.91
2018-11-22T14:50:52.207Z,100431.67
2018-11-22T14:53:18.165Z,100432.04
2018-11-22T14:55:44.138Z,100422.27
2018-11-22T14:58:10.119Z,100427.48
2018-11-22T15:00:36.103Z,100416.17
2018-11-22T15:03:02.087Z,100425.12
2018-11-22T15:05:28.906Z,100431.41
2018-11-22T15:07:54.957Z,100430.27
2018-11-22T15:10:20.994Z,100432.38
2018-11-22T15:12:46.975Z,100425.75
2018-11-22T15:15:13.057Z,100428.58
2018-11-22T15:17:39.040Z,100425.88
2018-11-22T15:20:05.054Z,100430.36
2018-11-22T15:22:32.354Z,100429.50
2018-11-22T15:24:58.494Z,100428.57
2018-11-22T15:27:24.587Z,100427.55
2018-11-22T15:29:50.584Z,100424.37
2018-11-22T15:32:17.594Z,100427.89
2018-11-22T15:34:43.702Z,100428.89
2018-11-22T15:37:09.875Z,100433.39
2018-11-22T15:39:35.889Z,100430.05
2018-11-22T15:42:01.894Z,100427.13
2018-11-22T15:44:27.894Z,100423.78
2018-11-22T15:46:53.920Z,100427.97
2018-11-22T15:49:19.915Z,100430.61
2018-11-22T15:51:45.959Z,100434.55
2018-11-22T15:54:11.952Z,100432.87
2018-11-22T15:56:38.018Z,100433.00
2018-11-22T15:59:04.021Z,100431.49
2018-11-22T16:01:30.836Z,100433.06
2018-11-22T16:03:58.793Z,100435.39
2018-11-22T16:06:24.881Z,100434.55
2018-11-22T16:08:50.961Z,100430.73
2018-11-22T16:11:20.650Z,100430.78
2018-11-22T16:13:46.677Z,100434.27
2018-11-22T16:16:13.518Z,100432.09
2018-11-22T16:18:39.622Z,100438.27
2018-11-22T16:21:06.732Z,100438.92
2018-11-22T16:23:32.870Z,100443.91
2018-11-22T16:26:05.722Z,100447.91
2018-11-22T16:34:14.061Z,100435.84
2018-11-22T16:36:46.506Z,100436.91
2018-11-22T16:39:16.549Z,100442.77
2018-11-22T16:55:50.669Z,100436.98
2018-11-22T16:58:25.014Z,100435.50
2018-11-22T17:00:53.908Z,100436.11
2018-11-22T17:03:32.834Z,100438.52
2018-11-22T17:06:01.379Z,100434.84
2018-11-22T17:11:05.011Z,100436.94
2018-11-22T17:28:46.182Z,100443.49
2018-11-22T17:33:44.078Z,100449.67
2018-11-22T17:38:48.235Z,100444.72
2018-11-22T17:43:55.687Z,100442.69
2018-11-22T17:46:25.707Z,100445.64
2018-11-22T17:48:54.840Z,100446.70
2018-11-22T17:51:22.104Z,100448.78
2018-11-22T17:53:48.388Z,100447.55
2018-11-22T17:56:14.427Z,100443.97
2018-11-22T17:58:40.452Z,100444.48
2018-11-22T18:01:06.486Z,100439.85
2018-11-22T18:03:33.072Z,100435.39
2018-11-22T18:05:59.149Z,100438.24
2018-11-22T18:08:27.959Z,100436.87
2018-11-22T18:10:54.016Z,100436.48
2018-11-22T18:14:17.682Z,100442.16
2018-11-22T18:16:44.493Z,100443.30
2018-11-22T18:19:09.800Z,100435.56
2018-11-22T18:21:35.808Z,100440.55
2018-11-22T18:24:01.815Z,100437.50
2018-11-22T18:26:27.782Z,100429.78
2018-11-22T18:28:53.764Z,100433.44
2018-11-22T18:31:19.749Z,100429.56
2018-11-22T18:33:45.708Z,100431.94
2018-11-22T18:36:11.673Z,100433.80
2018-11-22T18:38:37.645Z,100433.58
2018-11-22T18:41:03.601Z,100431.75
2018-11-22T18:43:29.563Z,100434.52
2018-11-22T18:45:55.519Z,100433.02
2018-11-22T18:48:22.726Z,100434.16
2018-11-22T18:50:49.821Z,100435.67
2018-11-22T18:53:15.780Z,100435.58
2018-11-22T18:55:41.737Z,100432.38
2018-11-22T18:58:07.725Z,100440.23
2018-11-22T19:00:33.710Z,100435.62
2018-11-22T19:02:59.667Z,100433.22
2018-11-22T19:05:25.668Z,100425.05
2018-11-22T19:07:51.608Z,100430.93
2018-11-22T19:10:17.605Z,100431.20
2018-11-22T19:12:43.553Z,100438.66
2018-11-22T19:15:10.778Z,100437.77
2018-11-22T19:17:38.065Z,100441.53
2018-11-22T19:20:09.897Z,100437.72
2018-11-22T19:22:35.859Z,100443.64
2018-11-22T19:25:01.816Z,100443.68
2018-11-22T19:27:29.884Z,100450.92
2018-11-22T19:29:56.048Z,100443.70
2018-11-22T19:32:22.036Z,100444.29
2018-11-22T19:34:48.210Z,100441.77
2018-11-22T19:37:14.251Z,100442.38
2018-11-22T19:39:40.269Z,100446.30
2018-11-22T19:42:06.362Z,100439.46
2018-11-22T19:44:33.193Z,100442.27
2018-11-22T19:46:59.353Z,100440.84
2018-11-22T19:49:25.598Z,100448.95
2018-11-22T19:51:51.687Z,100445.94
2018-11-22T19:54:17.699Z,100450.06
2018-11-22T19:56:43.716Z,100445.19
2018-11-22T19:59:09.746Z,100445.08
2018-11-22T20:01:35.786Z,100451.02
2018-11-22T20:04:02.162Z,100449.64
2018-11-22T20:06:28.208Z,100449.70
2018-11-22T20:08:55.292Z,100453.13
2018-11-22T20:11:24.695Z,100454.95
2018-11-22T20:13:50.664Z,100461.47
2018-11-22T20:16:18.401Z,100457.54
2018-11-22T20:18:46.636Z,100457.00
2018-11-22T20:21:12.615Z,100462.95
2018-11-22T20:23:38.619Z,100460.12
2018-11-22T20:26:04.619Z,100461.30
2018-11-22T20:28:30.693Z,100462.62
2018-11-22T20:30:56.726Z,100458.27
2018-11-22T20:33:22.909Z,100463.06
2018-11-22T20:35:49.090Z,100454.34
2018-11-22T20:38:15.747Z,100458.59
2018-11-22T20:40:41.794Z,100454.95
2018-11-22T20:43:09.467Z,100455.92
2018-11-22T20:45:40.717Z,100459.18
2018-11-22T20:48:01.844Z,100454.34
2018-11-22T20:50:27.858Z,100452.69
2018-11-22T20:52:53.812Z,100455.27
2018-11-22T20:55:19.780Z,100453.45
2018-11-22T20:57:45.728Z,100462.20
2018-11-22T21:02:44.075Z,100460.87
2018-11-22T21:05:10.058Z,100458.05
2018-11-22T21:07:36.739Z,100464.09
2018-11-22T21:10:02.728Z,100464.23
2018-11-22T21:12:28.758Z,100464.53
2018-11-22T21:14:54.766Z,100460.95
2018-11-22T21:17:20.727Z,100459.59
2018-11-22T21:19:46.684Z,100457.00
2018-11-22T21:22:12.671Z,100456.57
2018-11-22T21:24:38.611Z,100462.81
2018-11-22T21:27:05.554Z,100465.08
2018-11-22T21:29:31.668Z,100466.72
2018-11-22T21:31:58.962Z,100465.67
2018-11-22T21:34:25.003Z,100468.03
2018-11-22T21:36:51.011Z,100468.86
2018-11-22T21:39:16.971Z,100464.98
2018-11-22T21:41:42.965Z,100474.51
2018-11-22T21:44:08.979Z,100470.11
2018-11-22T21:46:34.950Z,100470.47
2018-11-22T21:49:00.945Z,100473.95
2018-11-22T21:51:26.922Z,100471.62
2018-11-22T21:53:52.910Z,100474.77
2018-11-22T21:56:18.920Z,100469.67
2018-11-22T21:58:44.897Z,100474.09
2018-11-22T22:01:10.898Z,100480.41
2018-11-22T22:03:36.948Z,100474.44
2018-11-22T22:06:02.958Z,100481.41
2018-11-22T22:08:28.977Z,100478.52
2018-11-22T22:10:56.282Z,100476.63
2018-11-22T22:13:22.267Z,100476.67
2018-11-22T22:15:48.256Z,100467.62
2018-11-22T22:18:21.010Z,100478.38
2018-11-22T22:20:40.347Z,100478.22
2018-11-22T22:23:13.225Z,100475.81
2018-11-22T22:25:34.533Z,100480.41
2018-11-22T22:28:00.571Z,100475.02
2018-11-22T22:30:26.542Z,100472.85
2018-11-22T22:32:52.566Z,100473.30
2018-11-22T22:35:18.539Z,100476.70
2018-11-22T22:37:44.511Z,100474.55
2018-11-22T22:40:10.494Z,100478.13
2018-11-22T22:42:36.460Z,100481.77
2018-11-22T22:45:02.432Z,100480.44
2018-11-22T22:47:28.415Z,100480.84
2018-11-22T22:49:54.387Z,100473.89
2018-11-22T22:52:20.360Z,100476.39
2018-11-22T22:54:46.355Z,100473.73
2018-11-22T22:57:12.334Z,100473.45
2018-11-22T22:59:38.382Z,100478.04
2018-11-22T23:02:04.350Z,100478.83
2018-11-22T23:04:30.391Z,100472.66
2018-11-22T23:06:56.371Z,100478.86
2018-11-22T23:09:22.363Z,100481.95
2018-11-22T23:11:48.331Z,100480.16
2018-11-22T23:14:14.312Z,100471.91
2018-11-22T23:16:40.285Z,100471.66
2018-11-22T23:19:06.247Z,100467.22
2018-11-22T23:21:32.213Z,100467.37
2018-11-22T23:23:58.200Z,100464.72
2018-11-22T23:26:24.155Z,100460.63
2018-11-22T23:28:50.144Z,100460.02
2018-11-22T23:31:16.103Z,100462.55
2018-11-22T23:33:42.076Z,100460.95
2018-11-22T23:36:08.038Z,100465.72
2018-11-22T23:38:34.044Z,100456.27
2018-11-22T23:41:00.020Z,100461.92
2018-11-22T23:43:25.994Z,100465.53
2018-11-22T23:45:51.953Z,100470.03
2018-11-22T23:48:17.926Z,100466.72
2018-11-22T23:50:43.890Z,100460.59
2018-11-22T23:53:09.872Z,100460.72
2018-11-22T23:55:38.855Z,100460.73
2018-11-22T23:58:04.822Z,100459.41
